sensor_id;sensor_type;location;lat;lon;timestamp;P1;durP1;ratioP1;P2;durP2;ratioP2
17524;SDS011;40431;52.198;9.902;2022-08-19T00:00:35;10.33;;;9.57;;
17524;SDS011;40431;52.198;9.902;2022-08-19T00:03:02;9.90;;;9.10;;
17524;SDS011;40431;52.198;9.902;2022-08-19T00:05:28;10.93;;;9.83;;
17524;SDS011;40431;52.198;9.902;2022-08-19T00:07:55;10.87;;;9.77;;
17524;SDS011;40431;52.198;9.902;2022-08-19T00:10:21;10.43;;;9.63;;
17524;SDS011;40431;52.198;9.902;2022-08-19T00:12:49;11.90;;;10.90;;
17524;SDS011;40431;52.198;9.902;2022-08-19T00:15:18;12.07;;;11.07;;
17524;SDS011;40431;52.198;9.902;2022-08-19T00:17:46;12.87;;;11.63;;
17524;SDS011;40431;52.198;9.902;2022-08-19T00:20:16;11.63;;;10.63;;
17524;SDS011;40431;52.198;9.902;2022-08-19T00:22:43;11.80;;;10.83;;
17524;SDS011;40431;52.198;9.902;2022-08-19T00:25:11;12.00;;;11.00;;
17524;SDS011;40431;52.198;9.902;2022-08-19T00:27:38;10.70;;;9.80;;
17524;SDS011;40431;52.198;9.902;2022-08-19T00:30:06;11.23;;;10.13;;
17524;SDS011;40431;52.198;9.902;2022-08-19T00:32:36;11.83;;;10.80;;
17524;SDS011;40431;52.198;9.902;2022-08-19T00:35:04;10.40;;;9.53;;
17524;SDS011;40431;52.198;9.902;2022-08-19T00:37:31;11.00;;;10.10;;
17524;SDS011;40431;52.198;9.902;2022-08-19T00:39:58;11.00;;;9.93;;
17524;SDS011;40431;52.198;9.902;2022-08-19T00:42:24;10.57;;;9.67;;
17524;SDS011;40431;52.198;9.902;2022-08-19T00:44:53;11.17;;;10.23;;
17524;SDS011;40431;52.198;9.902;2022-08-19T00:47:19;10.60;;;9.80;;
17524;SDS011;40431;52.198;9.902;2022-08-19T00:49:48;10.77;;;9.97;;
17524;SDS011;40431;52.198;9.902;2022-08-19T00:52:20;11.17;;;10.20;;
17524;SDS011;40431;52.198;9.902;2022-08-19T00:54:48;11.73;;;10.73;;
17524;SDS011;40431;52.198;9.902;2022-08-19T00:57:17;10.80;;;9.93;;
17524;SDS011;40431;52.198;9.902;2022-08-19T00:59:47;10.60;;;9.87;;
17524;SDS011;40431;52.198;9.902;2022-08-19T01:02:18;11.20;;;10.33;;
17524;SDS011;40431;52.198;9.902;2022-08-19T01:04:45;11.50;;;10.37;;
17524;SDS011;40431;52.198;9.902;2022-08-19T01:07:12;10.60;;;9.60;;
17524;SDS011;40431;52.198;9.902;2022-08-19T01:09:39;11.90;;;11.00;;
17524;SDS011;40431;52.198;9.902;2022-08-19T01:12:05;11.03;;;10.10;;
17524;SDS011;40431;52.198;9.902;2022-08-19T01:14:32;11.07;;;10.17;;
17524;SDS011;40431;52.198;9.902;2022-08-19T01:17:00;11.07;;;10.23;;
17524;SDS011;40431;52.198;9.902;2022-08-19T01:19:27;10.63;;;9.83;;
17524;SDS011;40431;52.198;9.902;2022-08-19T01:21:57;11.97;;;10.97;;
17524;SDS011;40431;52.198;9.902;2022-08-19T01:24:29;11.30;;;10.40;;
17524;SDS011;40431;52.198;9.902;2022-08-19T01:26:56;11.20;;;10.20;;
17524;SDS011;40431;52.198;9.902;2022-08-19T01:29:23;12.10;;;11.00;;
17524;SDS011;40431;52.198;9.902;2022-08-19T01:31:50;10.47;;;9.67;;
17524;SDS011;40431;52.198;9.902;2022-08-19T01:34:18;12.77;;;11.67;;
17524;SDS011;40431;52.198;9.902;2022-08-19T01:36:45;11.60;;;10.37;;
17524;SDS011;40431;52.198;9.902;2022-08-19T01:39:15;11.13;;;10.23;;
17524;SDS011;40431;52.198;9.902;2022-08-19T01:41:46;11.63;;;10.70;;
17524;SDS011;40431;52.198;9.902;2022-08-19T01:44:14;11.43;;;10.40;;
17524;SDS011;40431;52.198;9.902;2022-08-19T01:46:41;11.60;;;10.70;;
17524;SDS011;40431;52.198;9.902;2022-08-19T01:49:08;12.93;;;11.83;;
17524;SDS011;40431;52.198;9.902;2022-08-19T01:51:36;12.17;;;11.20;;
17524;SDS011;40431;52.198;9.902;2022-08-19T01:54:03;12.33;;;11.43;;
17524;SDS011;40431;52.198;9.902;2022-08-19T01:56:30;10.87;;;9.97;;
17524;SDS011;40431;52.198;9.902;2022-08-19T01:58:58;12.67;;;11.67;;
17524;SDS011;40431;52.198;9.902;2022-08-19T02:01:28;12.40;;;11.47;;
17524;SDS011;40431;52.198;9.902;2022-08-19T02:03:57;12.33;;;11.33;;
17524;SDS011;40431;52.198;9.902;2022-08-19T02:06:25;13.03;;;10.97;;
17524;SDS011;40431;52.198;9.902;2022-08-19T02:08:52;11.57;;;10.67;;
17524;SDS011;40431;52.198;9.902;2022-08-19T02:11:20;12.00;;;11.07;;
17524;SDS011;40431;52.198;9.902;2022-08-19T02:13:51;11.23;;;10.40;;
17524;SDS011;40431;52.198;9.902;2022-08-19T02:16:20;11.93;;;10.83;;
17524;SDS011;40431;52.198;9.902;2022-08-19T02:18:47;12.27;;;11.17;;
17524;SDS011;40431;52.198;9.902;2022-08-19T02:21:14;12.30;;;11.10;;
17524;SDS011;40431;52.198;9.902;2022-08-19T02:23:40;12.80;;;11.50;;
17524;SDS011;40431;52.198;9.902;2022-08-19T02:26:07;13.20;;;12.10;;
17524;SDS011;40431;52.198;9.902;2022-08-19T02:28:33;13.47;;;12.27;;
17524;SDS011;40431;52.198;9.902;2022-08-19T02:31:00;12.90;;;11.63;;
17524;SDS011;40431;52.198;9.902;2022-08-19T02:33:28;12.50;;;11.40;;
17524;SDS011;40431;52.198;9.902;2022-08-19T02:35:55;12.13;;;11.13;;
17524;SDS011;40431;52.198;9.902;2022-08-19T02:38:21;12.13;;;11.10;;
17524;SDS011;40431;52.198;9.902;2022-08-19T02:40:53;12.43;;;11.53;;
17524;SDS011;40431;52.198;9.902;2022-08-19T02:43:21;13.40;;;12.23;;
17524;SDS011;40431;52.198;9.902;2022-08-19T02:45:49;12.17;;;11.27;;
17524;SDS011;40431;52.198;9.902;2022-08-19T02:48:17;13.50;;;12.23;;
17524;SDS011;40431;52.198;9.902;2022-08-19T02:50:45;12.93;;;11.93;;
17524;SDS011;40431;52.198;9.902;2022-08-19T02:53:13;13.03;;;12.10;;
17524;SDS011;40431;52.198;9.902;2022-08-19T02:55:45;12.47;;;11.47;;
17524;SDS011;40431;52.198;9.902;2022-08-19T02:58:13;13.40;;;12.37;;
17524;SDS011;40431;52.198;9.902;2022-08-19T03:00:43;14.03;;;12.87;;
17524;SDS011;40431;52.198;9.902;2022-08-19T03:03:11;13.43;;;12.33;;
17524;SDS011;40431;52.198;9.902;2022-08-19T03:05:37;13.63;;;12.63;;
17524;SDS011;40431;52.198;9.902;2022-08-19T03:08:06;13.17;;;12.00;;
17524;SDS011;40431;52.198;9.902;2022-08-19T03:10:39;13.63;;;12.53;;
17524;SDS011;40431;52.198;9.902;2022-08-19T03:13:09;14.17;;;13.00;;
17524;SDS011;40431;52.198;9.902;2022-08-19T03:15:38;13.00;;;11.80;;
17524;SDS011;40431;52.198;9.902;2022-08-19T03:18:05;14.20;;;13.10;;
17524;SDS011;40431;52.198;9.902;2022-08-19T03:20:32;14.43;;;13.33;;
17524;SDS011;40431;52.198;9.902;2022-08-19T03:22:58;14.10;;;13.00;;
17524;SDS011;40431;52.198;9.902;2022-08-19T03:25:26;15.00;;;13.63;;
17524;SDS011;40431;52.198;9.902;2022-08-19T03:27:52;14.00;;;12.90;;
17524;SDS011;40431;52.198;9.902;2022-08-19T03:30:19;14.07;;;12.90;;
17524;SDS011;40431;52.198;9.902;2022-08-19T03:32:45;14.73;;;13.03;;
17524;SDS011;40431;52.198;9.902;2022-08-19T03:35:12;13.73;;;12.33;;
17524;SDS011;40431;52.198;9.902;2022-08-19T03:37:38;14.83;;;13.60;;
17524;SDS011;40431;52.198;9.902;2022-08-19T03:40:05;13.13;;;12.17;;
17524;SDS011;40431;52.198;9.902;2022-08-19T03:42:33;14.67;;;13.47;;
17524;SDS011;40431;52.198;9.902;2022-08-19T03:45:00;15.97;;;13.67;;
17524;SDS011;40431;52.198;9.902;2022-08-19T03:47:26;14.50;;;13.17;;
17524;SDS011;40431;52.198;9.902;2022-08-19T03:49:53;14.00;;;12.93;;
17524;SDS011;40431;52.198;9.902;2022-08-19T03:52:19;15.03;;;13.63;;
17524;SDS011;40431;52.198;9.902;2022-08-19T03:54:45;14.57;;;13.37;;
17524;SDS011;40431;52.198;9.902;2022-08-19T03:57:12;15.80;;;14.17;;
17524;SDS011;40431;52.198;9.902;2022-08-19T03:59:39;14.97;;;13.80;;
17524;SDS011;40431;52.198;9.902;2022-08-19T04:02:08;14.93;;;13.77;;
17524;SDS011;40431;52.198;9.902;2022-08-19T04:04:35;14.87;;;13.63;;
17524;SDS011;40431;52.198;9.902;2022-08-19T04:07:03;15.13;;;13.80;;
17524;SDS011;40431;52.198;9.902;2022-08-19T04:09:29;15.43;;;14.13;;
17524;SDS011;40431;52.198;9.902;2022-08-19T04:11:56;14.17;;;13.10;;
17524;SDS011;40431;52.198;9.902;2022-08-19T04:14:24;14.27;;;13.00;;
17524;SDS011;40431;52.198;9.902;2022-08-19T04:16:56;13.87;;;12.77;;
17524;SDS011;40431;52.198;9.902;2022-08-19T04:19:23;15.03;;;13.80;;
17524;SDS011;40431;52.198;9.902;2022-08-19T04:21:51;16.33;;;14.90;;
17524;SDS011;40431;52.198;9.902;2022-08-19T04:24:19;15.93;;;14.60;;
17524;SDS011;40431;52.198;9.902;2022-08-19T04:26:46;14.70;;;13.60;;
17524;SDS011;40431;52.198;9.902;2022-08-19T04:29:14;15.50;;;14.27;;
17524;SDS011;40431;52.198;9.902;2022-08-19T04:31:42;16.03;;;14.47;;
17524;SDS011;40431;52.198;9.902;2022-08-19T04:34:13;15.60;;;14.30;;
17524;SDS011;40431;52.198;9.902;2022-08-19T04:36:41;14.23;;;12.93;;
17524;SDS011;40431;52.198;9.902;2022-08-19T04:39:10;14.53;;;13.27;;
17524;SDS011;40431;52.198;9.902;2022-08-19T04:41:38;13.33;;;12.37;;
17524;SDS011;40431;52.198;9.902;2022-08-19T04:44:22;14.73;;;13.57;;
17524;SDS011;40431;52.198;9.902;2022-08-19T04:46:49;14.30;;;12.93;;
17524;SDS011;40431;52.198;9.902;2022-08-19T04:49:18;13.93;;;12.83;;
17524;SDS011;40431;52.198;9.902;2022-08-19T04:51:47;15.00;;;13.63;;
17524;SDS011;40431;52.198;9.902;2022-08-19T04:54:14;14.00;;;12.97;;
17524;SDS011;40431;52.198;9.902;2022-08-19T04:56:42;14.63;;;13.10;;
17524;SDS011;40431;52.198;9.902;2022-08-19T04:59:08;13.37;;;12.33;;
17524;SDS011;40431;52.198;9.902;2022-08-19T05:01:35;14.10;;;13.03;;
17524;SDS011;40431;52.198;9.902;2022-08-19T05:04:03;15.00;;;13.10;;
17524;SDS011;40431;52.198;9.902;2022-08-19T05:06:32;14.00;;;12.43;;
17524;SDS011;40431;52.198;9.902;2022-08-19T05:08:59;14.20;;;13.10;;
17524;SDS011;40431;52.198;9.902;2022-08-19T05:11:30;13.73;;;12.63;;
17524;SDS011;40431;52.198;9.902;2022-08-19T05:13:58;13.00;;;11.90;;
17524;SDS011;40431;52.198;9.902;2022-08-19T05:16:25;13.00;;;11.90;;
17524;SDS011;40431;52.198;9.902;2022-08-19T05:18:53;13.33;;;12.10;;
17524;SDS011;40431;52.198;9.902;2022-08-19T05:21:40;13.80;;;12.60;;
17524;SDS011;40431;52.198;9.902;2022-08-19T05:24:25;13.07;;;11.97;;
17524;SDS011;40431;52.198;9.902;2022-08-19T05:26:52;12.27;;;11.27;;
17524;SDS011;40431;52.198;9.902;2022-08-19T05:29:22;12.33;;;11.23;;
17524;SDS011;40431;52.198;9.902;2022-08-19T05:31:50;12.40;;;11.20;;
17524;SDS011;40431;52.198;9.902;2022-08-19T05:34:17;11.80;;;10.77;;
17524;SDS011;40431;52.198;9.902;2022-08-19T05:36:48;11.90;;;10.90;;
17524;SDS011;40431;52.198;9.902;2022-08-19T05:39:16;12.10;;;11.10;;
17524;SDS011;40431;52.198;9.902;2022-08-19T05:41:45;11.67;;;10.67;;
17524;SDS011;40431;52.198;9.902;2022-08-19T05:44:13;11.53;;;10.63;;
17524;SDS011;40431;52.198;9.902;2022-08-19T05:46:42;12.13;;;10.90;;
17524;SDS011;40431;52.198;9.902;2022-08-19T05:49:11;11.07;;;10.30;;
17524;SDS011;40431;52.198;9.902;2022-08-19T05:51:39;11.17;;;10.37;;
17524;SDS011;40431;52.198;9.902;2022-08-19T05:54:07;11.33;;;10.43;;
17524;SDS011;40431;52.198;9.902;2022-08-19T05:56:34;11.87;;;10.97;;
17524;SDS011;40431;52.198;9.902;2022-08-19T05:59:03;10.37;;;9.70;;
17524;SDS011;40431;52.198;9.902;2022-08-19T06:01:35;11.00;;;10.10;;
17524;SDS011;40431;52.198;9.902;2022-08-19T06:04:02;11.37;;;10.53;;
17524;SDS011;40431;52.198;9.902;2022-08-19T06:06:29;12.83;;;11.83;;
17524;SDS011;40431;52.198;9.902;2022-08-19T06:08:56;10.80;;;9.90;;
17524;SDS011;40431;52.198;9.902;2022-08-19T06:11:24;11.10;;;10.20;;
17524;SDS011;40431;52.198;9.902;2022-08-19T06:14:00;12.10;;;11.20;;
17524;SDS011;40431;52.198;9.902;2022-08-19T06:16:28;11.70;;;10.70;;
17524;SDS011;40431;52.198;9.902;2022-08-19T06:19:00;12.23;;;11.33;;
17524;SDS011;40431;52.198;9.902;2022-08-19T06:21:29;13.87;;;12.13;;
17524;SDS011;40431;52.198;9.902;2022-08-19T06:23:56;12.93;;;11.93;;
17524;SDS011;40431;52.198;9.902;2022-08-19T06:26:24;13.40;;;12.40;;
17524;SDS011;40431;52.198;9.902;2022-08-19T06:28:51;14.57;;;13.37;;
17524;SDS011;40431;52.198;9.902;2022-08-19T06:31:19;13.80;;;12.70;;
17524;SDS011;40431;52.198;9.902;2022-08-19T06:33:49;14.07;;;12.80;;
17524;SDS011;40431;52.198;9.902;2022-08-19T06:36:16;14.37;;;13.27;;
17524;SDS011;40431;52.198;9.902;2022-08-19T06:38:43;16.13;;;14.43;;
17524;SDS011;40431;52.198;9.902;2022-08-19T06:41:10;15.33;;;14.03;;
17524;SDS011;40431;52.198;9.902;2022-08-19T06:43:38;16.27;;;14.97;;
17524;SDS011;40431;52.198;9.902;2022-08-19T06:46:08;15.53;;;14.33;;
17524;SDS011;40431;52.198;9.902;2022-08-19T06:48:36;16.30;;;14.73;;
17524;SDS011;40431;52.198;9.902;2022-08-19T06:51:03;17.73;;;16.27;;
17524;SDS011;40431;52.198;9.902;2022-08-19T06:53:30;16.33;;;15.00;;
17524;SDS011;40431;52.198;9.902;2022-08-19T06:55:57;19.37;;;16.40;;
17524;SDS011;40431;52.198;9.902;2022-08-19T06:58:27;17.60;;;16.20;;
17524;SDS011;40431;52.198;9.902;2022-08-19T07:00:58;18.37;;;16.60;;
17524;SDS011;40431;52.198;9.902;2022-08-19T07:03:26;18.47;;;16.87;;
17524;SDS011;40431;52.198;9.902;2022-08-19T07:05:53;19.70;;;17.83;;
17524;SDS011;40431;52.198;9.902;2022-08-19T07:08:20;18.67;;;17.07;;
17524;SDS011;40431;52.198;9.902;2022-08-19T07:10:46;19.50;;;17.53;;
17524;SDS011;40431;52.198;9.902;2022-08-19T07:13:14;19.43;;;17.57;;
17524;SDS011;40431;52.198;9.902;2022-08-19T07:15:40;19.33;;;17.87;;
17524;SDS011;40431;52.198;9.902;2022-08-19T07:18:08;20.87;;;18.97;;
17524;SDS011;40431;52.198;9.902;2022-08-19T07:20:34;19.17;;;17.67;;
17524;SDS011;40431;52.198;9.902;2022-08-19T07:23:01;21.40;;;19.50;;
17524;SDS011;40431;52.198;9.902;2022-08-19T07:25:28;20.00;;;18.30;;
17524;SDS011;40431;52.198;9.902;2022-08-19T07:27:54;20.50;;;18.40;;
17524;SDS011;40431;52.198;9.902;2022-08-19T07:30:21;19.47;;;17.70;;
17524;SDS011;40431;52.198;9.902;2022-08-19T07:32:49;19.67;;;17.97;;
17524;SDS011;40431;52.198;9.902;2022-08-19T07:35:19;19.30;;;17.73;;
17524;SDS011;40431;52.198;9.902;2022-08-19T07:37:45;20.60;;;18.80;;
17524;SDS011;40431;52.198;9.902;2022-08-19T07:40:12;18.23;;;16.63;;
17524;SDS011;40431;52.198;9.902;2022-08-19T07:42:38;17.83;;;16.33;;
17524;SDS011;40431;52.198;9.902;2022-08-19T07:45:05;18.57;;;16.97;;
17524;SDS011;40431;52.198;9.902;2022-08-19T07:47:33;18.43;;;16.90;;
17524;SDS011;40431;52.198;9.902;2022-08-19T07:49:59;19.80;;;18.17;;
17524;SDS011;40431;52.198;9.902;2022-08-19T07:52:27;19.40;;;17.87;;
17524;SDS011;40431;52.198;9.902;2022-08-19T07:54:53;20.33;;;18.57;;
17524;SDS011;40431;52.198;9.902;2022-08-19T07:57:19;19.33;;;17.70;;
17524;SDS011;40431;52.198;9.902;2022-08-19T07:59:46;17.87;;;16.47;;
17524;SDS011;40431;52.198;9.902;2022-08-19T08:02:12;16.67;;;15.37;;
17524;SDS011;40431;52.198;9.902;2022-08-19T08:04:39;16.63;;;15.23;;
17524;SDS011;40431;52.198;9.902;2022-08-19T08:07:22;16.60;;;15.30;;
17524;SDS011;40431;52.198;9.902;2022-08-19T08:10:07;17.63;;;16.13;;
17524;SDS011;40431;52.198;9.902;2022-08-19T08:12:35;17.13;;;15.63;;
17524;SDS011;40431;52.198;9.902;2022-08-19T08:15:07;15.23;;;14.00;;
17524;SDS011;40431;52.198;9.902;2022-08-19T08:17:37;13.50;;;12.50;;
17524;SDS011;40431;52.198;9.902;2022-08-19T08:20:04;13.67;;;12.57;;
17524;SDS011;40431;52.198;9.902;2022-08-19T08:22:32;14.07;;;12.67;;
17524;SDS011;40431;52.198;9.902;2022-08-19T08:25:19;14.60;;;13.30;;
17524;SDS011;40431;52.198;9.902;2022-08-19T08:27:47;14.77;;;13.40;;
17524;SDS011;40431;52.198;9.902;2022-08-19T08:30:15;16.70;;;15.50;;
17524;SDS011;40431;52.198;9.902;2022-08-19T08:32:42;15.23;;;14.03;;
17524;SDS011;40431;52.198;9.902;2022-08-19T08:35:10;14.47;;;13.00;;
17524;SDS011;40431;52.198;9.902;2022-08-19T08:37:39;13.93;;;12.77;;
17524;SDS011;40431;52.198;9.902;2022-08-19T08:40:06;12.67;;;11.67;;
17524;SDS011;40431;52.198;9.902;2022-08-19T08:42:45;15.77;;;13.27;;
17524;SDS011;40431;52.198;9.902;2022-08-19T08:45:17;14.03;;;12.83;;
17524;SDS011;40431;52.198;9.902;2022-08-19T08:47:45;12.63;;;11.63;;
17524;SDS011;40431;52.198;9.902;2022-08-19T08:50:18;13.10;;;12.17;;
17524;SDS011;40431;52.198;9.902;2022-08-19T08:52:48;12.67;;;11.50;;
17524;SDS011;40431;52.198;9.902;2022-08-19T08:55:18;9.90;;;9.27;;
17524;SDS011;40431;52.198;9.902;2022-08-19T08:57:51;10.37;;;9.67;;
17524;SDS011;40431;52.198;9.902;2022-08-19T09:00:20;9.63;;;8.83;;
17524;SDS011;40431;52.198;9.902;2022-08-19T09:02:50;8.53;;;7.93;;
17524;SDS011;40431;52.198;9.902;2022-08-19T09:05:16;10.17;;;9.47;;
17524;SDS011;40431;52.198;9.902;2022-08-19T09:07:46;8.83;;;8.07;;
17524;SDS011;40431;52.198;9.902;2022-08-19T09:10:21;10.23;;;9.43;;
17524;SDS011;40431;52.198;9.902;2022-08-19T09:12:57;11.07;;;10.10;;
17524;SDS011;40431;52.198;9.902;2022-08-19T09:15:34;10.73;;;9.40;;
17524;SDS011;40431;52.198;9.902;2022-08-19T09:18:04;15.53;;;9.27;;
17524;SDS011;40431;52.198;9.902;2022-08-19T09:20:31;13.97;;;9.10;;
17524;SDS011;40431;52.198;9.902;2022-08-19T09:22:58;11.17;;;8.80;;
17524;SDS011;40431;52.198;9.902;2022-08-19T09:25:24;9.30;;;8.50;;
17524;SDS011;40431;52.198;9.902;2022-08-19T09:27:51;9.03;;;8.17;;
17524;SDS011;40431;52.198;9.902;2022-08-19T09:30:21;8.40;;;7.70;;
17524;SDS011;40431;52.198;9.902;2022-08-19T09:32:50;9.63;;;8.93;;
17524;SDS011;40431;52.198;9.902;2022-08-19T09:35:31;7.27;;;6.70;;
17524;SDS011;40431;52.198;9.902;2022-08-19T09:37:59;6.90;;;6.30;;
17524;SDS011;40431;52.198;9.902;2022-08-19T09:40:26;7.53;;;6.80;;
17524;SDS011;40431;52.198;9.902;2022-08-19T09:42:53;7.17;;;6.57;;
17524;SDS011;40431;52.198;9.902;2022-08-19T09:45:20;7.57;;;6.87;;
17524;SDS011;40431;52.198;9.902;2022-08-19T09:47:47;8.07;;;7.40;;
17524;SDS011;40431;52.198;9.902;2022-08-19T09:50:15;9.77;;;7.27;;
17524;SDS011;40431;52.198;9.902;2022-08-19T09:52:44;6.00;;;5.50;;
17524;SDS011;40431;52.198;9.902;2022-08-19T09:55:11;6.23;;;5.07;;
17524;SDS011;40431;52.198;9.902;2022-08-19T09:57:38;5.80;;;5.40;;
17524;SDS011;40431;52.198;9.902;2022-08-19T10:00:05;7.60;;;5.67;;
17524;SDS011;40431;52.198;9.902;2022-08-19T10:02:34;6.20;;;5.70;;
17524;SDS011;40431;52.198;9.902;2022-08-19T10:05:01;6.57;;;5.50;;
17524;SDS011;40431;52.198;9.902;2022-08-19T10:07:54;6.40;;;5.80;;
17524;SDS011;40431;52.198;9.902;2022-08-19T10:10:22;5.80;;;5.40;;
17524;SDS011;40431;52.198;9.902;2022-08-19T10:12:48;6.77;;;5.60;;
17524;SDS011;40431;52.198;9.902;2022-08-19T10:15:15;5.43;;;5.03;;
17524;SDS011;40431;52.198;9.902;2022-08-19T10:17:44;6.20;;;5.73;;
17524;SDS011;40431;52.198;9.902;2022-08-19T10:20:10;5.90;;;5.40;;
17524;SDS011;40431;52.198;9.902;2022-08-19T10:22:37;6.30;;;5.90;;
17524;SDS011;40431;52.198;9.902;2022-08-19T10:25:06;5.33;;;4.93;;
17524;SDS011;40431;52.198;9.902;2022-08-19T10:27:33;5.13;;;3.93;;
17524;SDS011;40431;52.198;9.902;2022-08-19T10:29:59;4.77;;;4.37;;
17524;SDS011;40431;52.198;9.902;2022-08-19T10:32:26;4.50;;;4.10;;
17524;SDS011;40431;52.198;9.902;2022-08-19T10:34:52;3.63;;;3.33;;
17524;SDS011;40431;52.198;9.902;2022-08-19T10:37:19;4.50;;;3.13;;
17524;SDS011;40431;52.198;9.902;2022-08-19T10:39:45;3.80;;;3.33;;
17524;SDS011;40431;52.198;9.902;2022-08-19T10:42:14;8.23;;;4.53;;
17524;SDS011;40431;52.198;9.902;2022-08-19T10:44:41;3.13;;;2.90;;
17524;SDS011;40431;52.198;9.902;2022-08-19T10:47:08;3.83;;;3.43;;
17524;SDS011;40431;52.198;9.902;2022-08-19T10:49:34;9.90;;;2.90;;
17524;SDS011;40431;52.198;9.902;2022-08-19T10:52:21;4.40;;;2.70;;
17524;SDS011;40431;52.198;9.902;2022-08-19T10:54:58;2.00;;;1.70;;
17524;SDS011;40431;52.198;9.902;2022-08-19T10:57:44;3.87;;;1.83;;
17524;SDS011;40431;52.198;9.902;2022-08-19T11:00:11;2.20;;;2.00;;
17524;SDS011;40431;52.198;9.902;2022-08-19T11:02:38;1.83;;;1.70;;
17524;SDS011;40431;52.198;9.902;2022-08-19T11:05:05;4.63;;;2.10;;
17524;SDS011;40431;52.198;9.902;2022-08-19T11:07:32;2.13;;;1.63;;
17524;SDS011;40431;52.198;9.902;2022-08-19T11:09:59;2.13;;;1.87;;
17524;SDS011;40431;52.198;9.902;2022-08-19T11:12:25;4.03;;;2.13;;
17524;SDS011;40431;52.198;9.902;2022-08-19T11:14:53;2.30;;;1.63;;
17524;SDS011;40431;52.198;9.902;2022-08-19T11:17:20;3.10;;;1.90;;
17524;SDS011;40431;52.198;9.902;2022-08-19T11:19:48;2.00;;;1.53;;
17524;SDS011;40431;52.198;9.902;2022-08-19T11:22:15;1.40;;;1.30;;
17524;SDS011;40431;52.198;9.902;2022-08-19T11:24:42;4.03;;;1.50;;
17524;SDS011;40431;52.198;9.902;2022-08-19T11:27:09;4.13;;;1.50;;
17524;SDS011;40431;52.198;9.902;2022-08-19T11:29:37;2.00;;;1.50;;
17524;SDS011;40431;52.198;9.902;2022-08-19T11:32:06;1.60;;;1.50;;
17524;SDS011;40431;52.198;9.902;2022-08-19T11:34:35;2.40;;;2.00;;
17524;SDS011;40431;52.198;9.902;2022-08-19T11:37:02;1.83;;;1.50;;
17524;SDS011;40431;52.198;9.902;2022-08-19T11:39:31;2.23;;;1.93;;
17524;SDS011;40431;52.198;9.902;2022-08-19T11:41:58;2.20;;;1.60;;
17524;SDS011;40431;52.198;9.902;2022-08-19T11:44:26;3.03;;;1.60;;
17524;SDS011;40431;52.198;9.902;2022-08-19T11:46:55;2.37;;;1.40;;
17524;SDS011;40431;52.198;9.902;2022-08-19T11:49:23;6.20;;;1.83;;
17524;SDS011;40431;52.198;9.902;2022-08-19T11:51:50;1.40;;;1.30;;
17524;SDS011;40431;52.198;9.902;2022-08-19T11:54:16;3.80;;;1.30;;
17524;SDS011;40431;52.198;9.902;2022-08-19T11:56:43;1.57;;;1.47;;
17524;SDS011;40431;52.198;9.902;2022-08-19T11:59:12;2.27;;;1.80;;
17524;SDS011;40431;52.198;9.902;2022-08-19T12:01:39;1.40;;;1.30;;
17524;SDS011;40431;52.198;9.902;2022-08-19T12:04:07;2.90;;;1.57;;
17524;SDS011;40431;52.198;9.902;2022-08-19T12:06:37;2.20;;;1.70;;
17524;SDS011;40431;52.198;9.902;2022-08-19T12:09:05;2.60;;;1.43;;
17524;SDS011;40431;52.198;9.902;2022-08-19T12:11:33;2.90;;;1.77;;
17524;SDS011;40431;52.198;9.902;2022-08-19T12:13:59;1.50;;;1.40;;
17524;SDS011;40431;52.198;9.902;2022-08-19T12:16:27;3.80;;;1.40;;
17524;SDS011;40431;52.198;9.902;2022-08-19T12:18:55;1.87;;;1.77;;
17524;SDS011;40431;52.198;9.902;2022-08-19T12:21:25;2.40;;;1.63;;
17524;SDS011;40431;52.198;9.902;2022-08-19T12:23:55;1.53;;;1.43;;
17524;SDS011;40431;52.198;9.902;2022-08-19T12:26:22;1.50;;;1.40;;
17524;SDS011;40431;52.198;9.902;2022-08-19T12:28:50;2.10;;;1.20;;
17524;SDS011;40431;52.198;9.902;2022-08-19T12:31:17;5.03;;;1.40;;
17524;SDS011;40431;52.198;9.902;2022-08-19T12:33:44;1.30;;;1.20;;
17524;SDS011;40431;52.198;9.902;2022-08-19T12:36:12;1.53;;;1.17;;
17524;SDS011;40431;52.198;9.902;2022-08-19T12:38:41;3.40;;;1.80;;
17524;SDS011;40431;52.198;9.902;2022-08-19T12:41:11;1.70;;;1.60;;
17524;SDS011;40431;52.198;9.902;2022-08-19T12:43:39;1.40;;;1.30;;
17524;SDS011;40431;52.198;9.902;2022-08-19T12:46:06;1.20;;;1.07;;
17524;SDS011;40431;52.198;9.902;2022-08-19T12:48:33;1.37;;;1.20;;
17524;SDS011;40431;52.198;9.902;2022-08-19T12:51:00;2.13;;;1.50;;
17524;SDS011;40431;52.198;9.902;2022-08-19T12:53:31;2.17;;;1.50;;
17524;SDS011;40431;52.198;9.902;2022-08-19T12:55:57;1.93;;;1.47;;
17524;SDS011;40431;52.198;9.902;2022-08-19T12:58:26;1.47;;;1.37;;
17524;SDS011;40431;52.198;9.902;2022-08-19T13:00:53;2.00;;;1.60;;
17524;SDS011;40431;52.198;9.902;2022-08-19T13:03:19;5.37;;;1.77;;
17524;SDS011;40431;52.198;9.902;2022-08-19T13:05:47;2.53;;;1.40;;
17524;SDS011;40431;52.198;9.902;2022-08-19T13:08:15;2.40;;;1.33;;
17524;SDS011;40431;52.198;9.902;2022-08-19T13:10:41;1.30;;;1.20;;
17524;SDS011;40431;52.198;9.902;2022-08-19T13:13:09;2.23;;;1.30;;
17524;SDS011;40431;52.198;9.902;2022-08-19T13:15:37;3.67;;;1.90;;
17524;SDS011;40431;52.198;9.902;2022-08-19T13:18:06;1.33;;;1.23;;
17524;SDS011;40431;52.198;9.902;2022-08-19T13:20:35;1.43;;;1.33;;
17524;SDS011;40431;52.198;9.902;2022-08-19T13:23:03;2.40;;;1.60;;
17524;SDS011;40431;52.198;9.902;2022-08-19T13:25:30;1.73;;;1.47;;
17524;SDS011;40431;52.198;9.902;2022-08-19T13:27:57;4.00;;;1.60;;
17524;SDS011;40431;52.198;9.902;2022-08-19T13:30:23;2.40;;;1.53;;
17524;SDS011;40431;52.198;9.902;2022-08-19T13:33:08;1.40;;;1.30;;
17524;SDS011;40431;52.198;9.902;2022-08-19T13:35:39;1.33;;;1.23;;
17524;SDS011;40431;52.198;9.902;2022-08-19T13:38:07;1.63;;;1.40;;
17524;SDS011;40431;52.198;9.902;2022-08-19T13:40:34;1.23;;;1.10;;
17524;SDS011;40431;52.198;9.902;2022-08-19T13:43:02;1.30;;;1.20;;
17524;SDS011;40431;52.198;9.902;2022-08-19T13:45:30;2.83;;;1.37;;
17524;SDS011;40431;52.198;9.902;2022-08-19T13:47:59;1.07;;;1.00;;
17524;SDS011;40431;52.198;9.902;2022-08-19T13:50:33;0.93;;;0.90;;
17524;SDS011;40431;52.198;9.902;2022-08-19T13:53:00;1.13;;;1.10;;
17524;SDS011;40431;52.198;9.902;2022-08-19T13:55:28;0.90;;;0.90;;
17524;SDS011;40431;52.198;9.902;2022-08-19T13:57:55;2.63;;;1.20;;
17524;SDS011;40431;52.198;9.902;2022-08-19T14:00:23;1.57;;;0.90;;
17524;SDS011;40431;52.198;9.902;2022-08-19T14:02:52;1.60;;;1.20;;
17524;SDS011;40431;52.198;9.902;2022-08-19T14:05:20;1.00;;;1.00;;
17524;SDS011;40431;52.198;9.902;2022-08-19T14:07:48;1.10;;;1.10;;
17524;SDS011;40431;52.198;9.902;2022-08-19T14:10:15;1.50;;;1.30;;
17524;SDS011;40431;52.198;9.902;2022-08-19T14:12:42;1.17;;;1.10;;
17524;SDS011;40431;52.198;9.902;2022-08-19T14:15:09;1.23;;;1.13;;
17524;SDS011;40431;52.198;9.902;2022-08-19T14:17:37;1.10;;;1.00;;
17524;SDS011;40431;52.198;9.902;2022-08-19T14:20:05;1.33;;;1.00;;
17524;SDS011;40431;52.198;9.902;2022-08-19T14:22:34;1.23;;;1.07;;
17524;SDS011;40431;52.198;9.902;2022-08-19T14:25:03;2.00;;;1.10;;
17524;SDS011;40431;52.198;9.902;2022-08-19T14:27:32;2.33;;;1.20;;
17524;SDS011;40431;52.198;9.902;2022-08-19T14:29:58;1.10;;;0.93;;
17524;SDS011;40431;52.198;9.902;2022-08-19T14:32:25;1.27;;;1.17;;
17524;SDS011;40431;52.198;9.902;2022-08-19T14:34:52;2.50;;;1.10;;
17524;SDS011;40431;52.198;9.902;2022-08-19T14:37:19;3.80;;;1.33;;
17524;SDS011;40431;52.198;9.902;2022-08-19T14:39:46;1.30;;;1.20;;